createdAt,value
2019-03-31T00:01:54.068Z,100362.39
2019-03-31T00:04:21.589Z,100361.99
2019-03-31T00:06:49.042Z,100363.23
2019-03-31T00:09:16.598Z,100363.23
2019-03-31T00:11:44.387Z,100366.97
2019-03-31T00:14:11.890Z,100362.14
2019-03-31T00:16:39.427Z,100360.66
2019-03-31T00:19:07.213Z,100360.84
2019-03-31T00:21:34.717Z,100360.02
2019-03-31T00:24:02.250Z,100360.02
2019-03-31T00:55:12.061Z,100372.95
2019-03-31T00:57:39.631Z,100372.95
2019-03-31T01:00:08.343Z,100369.55
2019-03-31T01:02:35.922Z,100369.55
2019-03-31T01:05:03.548Z,100376.84
2019-03-31T01:07:31.740Z,100372.20
2019-03-31T01:09:59.959Z,100372.20
2019-03-31T01:12:28.294Z,100381.27
2019-03-31T01:14:56.137Z,100381.27
2019-03-31T01:17:23.705Z,100395.38
2019-03-31T01:19:53.016Z,100391.48
2019-03-31T01:22:20.614Z,100391.48
2019-03-31T01:24:48.555Z,100392.14
2019-03-31T01:27:17.754Z,100390.73
2019-03-31T01:29:45.337Z,100390.73
2019-03-31T01:32:13.292Z,100384.40
2019-03-31T01:34:40.988Z,100384.40
2019-03-31T01:37:08.566Z,100384.98
2019-03-31T01:39:37.012Z,100403.13
2019-03-31T01:42:04.669Z,100405.60
2019-03-31T01:44:32.399Z,100405.60
2019-03-31T01:47:00.345Z,100410.61
2019-03-31T01:49:28.405Z,100413.16
2019-03-31T01:51:56.042Z,100415.32
2019-03-31T01:54:23.653Z,100415.32
2019-03-31T01:56:51.727Z,100407.86
2019-03-31T01:59:19.415Z,100404.54
2019-03-31T02:02:03.287Z,100404.54
2019-03-31T02:04:19.477Z,100405.20
2019-03-31T02:06:47.114Z,100411.41
2019-03-31T02:09:14.721Z,100411.41
2019-03-31T02:11:44.627Z,100402.31
2019-03-31T02:14:12.275Z,100399.42
2019-03-31T02:16:39.992Z,100399.93
2019-03-31T02:19:07.931Z,100402.16
2019-03-31T02:21:37.892Z,100402.16
2019-03-31T02:24:08.028Z,100401.67
2019-03-31T02:26:35.635Z,100402.59
2019-03-31T02:29:03.569Z,100403.45
2019-03-31T02:31:31.197Z,100403.45
2019-03-31T02:33:59.166Z,100403.56
2019-03-31T02:36:27.172Z,100404.89
2019-03-31T02:38:55.058Z,100397.25
2019-03-31T02:41:22.688Z,100399.90
2019-03-31T02:43:50.237Z,100405.65
2019-03-31T02:46:17.844Z,100406.89
2019-03-31T02:48:45.996Z,100406.89
2019-03-31T02:51:13.616Z,100398.84
2019-03-31T02:53:41.217Z,100399.63
2019-03-31T02:56:08.714Z,100406.55
2019-03-31T02:58:38.188Z,100406.55
2019-03-31T03:01:08.761Z,100409.66
2019-03-31T03:03:37.566Z,100416.27
2019-03-31T03:06:05.404Z,100416.27
2019-03-31T03:08:32.993Z,100411.44
2019-03-31T03:11:00.515Z,100411.92
2019-03-31T03:13:28.762Z,100419.86
2019-03-31T03:15:56.394Z,100417.67
2019-03-31T03:18:24.274Z,100410.30
2019-03-31T03:20:53.935Z,100410.30
2019-03-31T03:23:24.914Z,100409.62
2019-03-31T03:25:56.101Z,100415.85
2019-03-31T03:28:21.712Z,100408.94
2019-03-31T03:30:49.431Z,100408.94
2019-03-31T03:33:18.322Z,100412.30
2019-03-31T03:35:46.430Z,100412.56
2019-03-31T03:38:13.970Z,100412.56
2019-03-31T03:40:41.560Z,100424.77
2019-03-31T03:43:09.439Z,100424.69
2019-03-31T03:45:40.423Z,100433.62
2019-03-31T03:48:08.013Z,100433.62
2019-03-31T03:50:38.096Z,100433.25
2019-03-31T03:53:09.006Z,100433.25
2019-03-31T03:55:36.593Z,100430.45
2019-03-31T03:58:04.233Z,100424.21
2019-03-31T04:00:31.823Z,100427.05
2019-03-31T04:02:59.667Z,100427.05
2019-03-31T04:05:27.283Z,100435.09
2019-03-31T04:07:54.928Z,100439.53
2019-03-31T04:10:22.796Z,100439.53
2019-03-31T04:12:50.446Z,100449.55
2019-03-31T04:15:17.999Z,100450.56
2019-03-31T04:17:45.653Z,100450.56
2019-03-31T04:20:13.847Z,100447.47
2019-03-31T04:22:41.391Z,100446.83
2019-03-31T04:25:08.956Z,100446.83
2019-03-31T04:27:36.767Z,100454.52
2019-03-31T04:30:04.308Z,100458.75
2019-03-31T04:32:31.860Z,100460.13
2019-03-31T04:34:59.470Z,100464.66
2019-03-31T04:37:27.325Z,100473.53
2019-03-31T04:39:54.963Z,100473.08
2019-03-31T04:42:22.546Z,100472.21
2019-03-31T04:44:50.023Z,100473.98
2019-03-31T04:47:17.823Z,100471.98
2019-03-31T04:49:45.400Z,100472.53
2019-03-31T04:52:15.643Z,100471.22
2019-03-31T04:54:43.211Z,100476.50
2019-03-31T04:57:11.021Z,100472.77
2019-03-31T04:59:38.615Z,100472.77
2019-03-31T05:02:06.173Z,100472.39
2019-03-31T05:04:33.712Z,100485.31
2019-03-31T05:07:03.992Z,100491.99
2019-03-31T05:09:31.524Z,100491.99
2019-03-31T05:11:59.159Z,100489.29
2019-03-31T05:14:26.706Z,100499.03
2019-03-31T05:16:54.539Z,100499.03
2019-03-31T05:19:22.138Z,100496.52
2019-03-31T05:21:49.687Z,100496.52
2019-03-31T05:24:17.267Z,100498.98
2019-03-31T05:26:45.165Z,100498.98
2019-03-31T05:29:13.659Z,100508.63
2019-03-31T05:31:44.059Z,100510.64
2019-03-31T05:34:19.378Z,100510.64
2019-03-31T05:36:44.792Z,100516.41
2019-03-31T05:39:12.435Z,100513.59
2019-03-31T05:41:40.336Z,100518.73
2019-03-31T05:44:09.745Z,100523.59
2019-03-31T05:46:37.350Z,100521.70
2019-03-31T05:49:04.883Z,100521.70
2019-03-31T05:51:32.411Z,100523.27
2019-03-31T05:54:03.201Z,100529.22
2019-03-31T05:56:33.195Z,100531.09
2019-03-31T05:59:07.906Z,100532.84
2019-03-31T06:01:35.511Z,100542.84
2019-03-31T06:04:03.100Z,100540.22
2019-03-31T06:06:31.018Z,100544.23
2019-03-31T06:08:58.609Z,100544.23
2019-03-31T06:11:26.285Z,100546.53
2019-03-31T06:13:56.955Z,100548.53
2019-03-31T06:16:27.847Z,100548.53
2019-03-31T06:18:56.949Z,100549.31
2019-03-31T06:21:24.450Z,100550.45
2019-03-31T06:23:52.321Z,100555.02
2019-03-31T06:26:20.231Z,100554.09
2019-03-31T06:28:47.879Z,100551.92
2019-03-31T06:31:15.841Z,100551.92
2019-03-31T06:33:43.315Z,100554.30
2019-03-31T06:36:14.001Z,100558.80
2019-03-31T06:38:41.519Z,100558.80
2019-03-31T06:41:12.781Z,100564.36
2019-03-31T06:43:40.369Z,100564.66
2019-03-31T06:46:07.840Z,100567.03
2019-03-31T06:48:35.724Z,100572.95
2019-03-31T06:51:03.333Z,100577.33
2019-03-31T06:53:30.880Z,100574.40
2019-03-31T06:56:01.454Z,100590.92
2019-03-31T06:58:28.982Z,100590.92
2019-03-31T07:00:56.875Z,100595.77
2019-03-31T07:03:27.818Z,100595.77
2019-03-31T07:05:55.418Z,100599.55
2019-03-31T07:08:24.315Z,100605.06
2019-03-31T07:10:53.190Z,100607.23
2019-03-31T07:13:20.873Z,100607.23
2019-03-31T07:15:48.442Z,100605.73
2019-03-31T07:18:16.453Z,100603.44
2019-03-31T07:20:44.005Z,100601.25
2019-03-31T07:23:14.017Z,100601.25
2019-03-31T07:25:41.821Z,100614.81
2019-03-31T07:28:09.342Z,100615.48
2019-03-31T07:30:36.962Z,100611.87
2019-03-31T07:33:04.792Z,100617.17
2019-03-31T07:35:32.518Z,100617.09
2019-03-31T07:38:02.157Z,100626.93
2019-03-31T07:40:30.156Z,100621.73
2019-03-31T07:42:58.115Z,100621.73
2019-03-31T07:45:25.687Z,100628.73
2019-03-31T07:47:53.592Z,100624.08
2019-03-31T07:50:21.473Z,100627.39
2019-03-31T07:52:49.011Z,100631.17
2019-03-31T07:55:16.848Z,100634.03
2019-03-31T07:57:44.351Z,100641.98
2019-03-31T08:00:12.667Z,100641.98
2019-03-31T08:02:42.900Z,100638.73
2019-03-31T08:05:10.401Z,100645.66
2019-03-31T08:07:37.994Z,100643.16
2019-03-31T08:10:05.853Z,100643.16
2019-03-31T08:12:33.391Z,100655.11
2019-03-31T08:15:00.960Z,100655.11
2019-03-31T08:17:28.926Z,100659.47
2019-03-31T08:19:56.541Z,100658.42
2019-03-31T08:22:24.052Z,100661.93
2019-03-31T08:24:53.063Z,100661.93
2019-03-31T08:27:20.638Z,100665.98
2019-03-31T08:29:55.671Z,100665.98
2019-03-31T08:32:20.484Z,100659.70
2019-03-31T08:34:48.416Z,100657.33
2019-03-31T08:37:16.021Z,100665.50
2019-03-31T08:39:43.878Z,100664.55
2019-03-31T08:42:11.793Z,100664.55
2019-03-31T08:44:39.410Z,100665.20
2019-03-31T08:47:08.549Z,100666.53
2019-03-31T08:49:36.227Z,100666.53
2019-03-31T08:52:03.812Z,100670.89
2019-03-31T08:54:31.669Z,100670.89
2019-03-31T08:57:02.645Z,100677.54
2019-03-31T08:59:30.244Z,100679.28
2019-03-31T09:01:57.942Z,100679.28
2019-03-31T09:04:28.645Z,100689.27
2019-03-31T09:06:56.544Z,100695.05
2019-03-31T09:09:24.137Z,100696.88
2019-03-31T09:11:58.780Z,100699.91
2019-03-31T09:14:26.575Z,100699.91
2019-03-31T09:16:55.408Z,100703.91
2019-03-31T09:19:22.990Z,100703.91
2019-03-31T09:21:52.773Z,100702.45
2019-03-31T09:24:20.281Z,100707.68
2019-03-31T09:26:50.621Z,100708.33
2019-03-31T09:29:18.432Z,100711.06
2019-03-31T09:31:46.167Z,100708.47
2019-03-31T09:34:13.800Z,100717.05
2019-03-31T09:36:41.665Z,100714.72
2019-03-31T09:39:09.314Z,100714.72
2019-03-31T09:41:36.936Z,100716.11
2019-03-31T09:44:07.999Z,100716.13
2019-03-31T09:46:37.574Z,100712.05
2019-03-31T09:49:05.173Z,100718.34
2019-03-31T09:51:32.951Z,100718.34
2019-03-31T09:54:00.512Z,100713.05
2019-03-31T09:56:28.150Z,100718.70
2019-03-31T09:58:56.013Z,100716.20
2019-03-31T10:01:25.955Z,100724.39
2019-03-31T10:03:53.535Z,100724.39
2019-03-31T10:06:30.481Z,100721.85
2019-03-31T10:08:53.366Z,100722.91
2019-03-31T10:11:20.930Z,100722.28
2019-03-31T10:13:48.801Z,100721.14
2019-03-31T10:16:17.565Z,100721.14
2019-03-31T10:18:45.154Z,100722.92
2019-03-31T10:21:13.065Z,100725.79
2019-03-31T10:23:40.623Z,100725.79
2019-03-31T10:26:08.272Z,100719.31
2019-03-31T10:28:36.097Z,100725.70
2019-03-31T10:31:03.724Z,100725.70
2019-03-31T10:33:31.267Z,100724.23
2019-03-31T10:35:59.183Z,100731.13
2019-03-31T10:38:27.030Z,100733.09
2019-03-31T10:40:54.632Z,100733.09
2019-03-31T10:43:24.589Z,100736.90
2019-03-31T10:45:52.200Z,100736.90
2019-03-31T10:48:21.310Z,100733.54
2019-03-31T10:50:49.336Z,100732.72
2019-03-31T10:53:23.722Z,100730.49
2019-03-31T10:55:51.295Z,100735.97
2019-03-31T10:58:22.265Z,100743.17
2019-03-31T11:00:50.686Z,100741.51
2019-03-31T11:03:20.700Z,100739.98
2019-03-31T11:05:48.993Z,100741.68
2019-03-31T11:08:18.364Z,100738.81
2019-03-31T11:10:47.030Z,100743.12
2019-03-31T11:13:14.931Z,100741.02
2019-03-31T11:15:42.554Z,100735.64
2019-03-31T11:18:12.184Z,100734.97
2019-03-31T11:20:45.755Z,100736.15
2019-03-31T11:23:24.252Z,100736.15
2019-03-31T11:25:54.848Z,100732.98
2019-03-31T11:28:22.492Z,100729.03
2019-03-31T11:30:50.169Z,100724.77
2019-03-31T11:33:17.702Z,100724.77
2019-03-31T11:35:47.146Z,100720.90
2019-03-31T11:38:20.166Z,100720.52
2019-03-31T11:40:48.026Z,100727.70
2019-03-31T11:43:17.877Z,100721.00
2019-03-31T11:45:45.651Z,100718.80
2019-03-31T11:48:13.286Z,100718.80
2019-03-31T11:50:43.223Z,100720.14
2019-03-31T11:53:11.459Z,100715.98
2019-03-31T11:55:39.367Z,100715.98
2019-03-31T11:58:11.171Z,100720.98
2019-03-31T12:00:43.809Z,100720.98
2019-03-31T12:03:11.443Z,100719.53
2019-03-31T12:05:38.980Z,100718.94
2019-03-31T12:08:08.441Z,100722.25
2019-03-31T12:10:45.194Z,100715.30
2019-03-31T12:13:13.060Z,100719.58
2019-03-31T12:15:42.702Z,100714.83
2019-03-31T12:18:13.298Z,100714.83
2019-03-31T12:20:41.155Z,100714.93
2019-03-31T12:23:13.326Z,100716.52
2019-03-31T12:25:47.028Z,100718.13
2019-03-31T12:28:14.941Z,100716.51
2019-03-31T12:30:45.191Z,100721.48
2019-03-31T12:33:15.692Z,100721.48
2019-03-31T12:35:50.658Z,100724.05
2019-03-31T12:38:18.360Z,100718.08
2019-03-31T12:40:45.913Z,100718.08
2019-03-31T12:43:16.896Z,100723.56
2019-03-31T12:45:44.469Z,100714.95
2019-03-31T12:48:13.468Z,100712.61
2019-03-31T12:50:45.601Z,100711.30
2019-03-31T12:53:16.124Z,100711.75
2019-03-31T12:55:59.143Z,100707.02
2019-03-31T12:58:15.915Z,100707.87
2019-03-31T13:00:43.457Z,100708.59
2019-03-31T13:03:12.169Z,100705.32
2019-03-31T13:05:39.986Z,100709.45
2019-03-31T13:08:07.528Z,100712.39
2019-03-31T13:10:38.388Z,100708.02
2019-03-31T13:13:16.305Z,100707.52
2019-03-31T13:15:45.826Z,100702.53
2019-03-31T13:18:15.573Z,100707.64
2019-03-31T13:20:50.117Z,100700.55
2019-03-31T13:23:17.923Z,100706.05
2019-03-31T13:25:45.565Z,100701.31
2019-03-31T13:28:16.238Z,100699.25
2019-03-31T13:30:44.034Z,100696.70
2019-03-31T13:33:13.454Z,100694.00
2019-03-31T13:35:41.155Z,100694.00
2019-03-31T13:38:11.249Z,100685.27
2019-03-31T13:40:38.338Z,100689.63
2019-03-31T13:43:06.280Z,100691.05
2019-03-31T13:45:34.143Z,100679.90
2019-03-31T13:48:05.848Z,100676.70
2019-03-31T13:50:35.850Z,100679.03
2019-03-31T13:53:06.257Z,100679.03
2019-03-31T13:55:33.730Z,100671.61
2019-03-31T13:58:02.730Z,100677.40
2019-03-31T14:00:30.977Z,100677.40
2019-03-31T14:02:58.579Z,100669.92
2019-03-31T14:05:28.564Z,100667.16
2019-03-31T14:07:59.846Z,100664.62
2019-03-31T14:10:31.995Z,100664.62
2019-03-31T14:12:59.534Z,100667.47
2019-03-31T14:15:29.119Z,100667.20
2019-03-31T14:17:56.606Z,100670.50
2019-03-31T14:20:24.595Z,100665.42
2019-03-31T14:22:52.399Z,100666.38
2019-03-31T14:25:23.247Z,100661.31
2019-03-31T14:27:50.879Z,100663.59
2019-03-31T14:30:18.723Z,100663.59
2019-03-31T14:32:46.263Z,100671.63
2019-03-31T14:35:14.145Z,100659.74
2019-03-31T14:37:42.010Z,100665.80
2019-03-31T14:40:10.835Z,100665.80
2019-03-31T14:42:40.226Z,100658.48
2019-03-31T14:45:10.983Z,100661.72
2019-03-31T14:47:40.882Z,100664.53
2019-03-31T14:50:08.473Z,100663.06
2019-03-31T14:52:36.219Z,100665.28
2019-03-31T14:55:03.926Z,100666.75
2019-03-31T14:57:33.827Z,100665.55
2019-03-31T15:00:14.182Z,100666.15
2019-03-31T15:02:36.874Z,100657.90
2019-03-31T15:05:04.404Z,100662.66
2019-03-31T15:07:34.181Z,100662.66
2019-03-31T15:10:01.758Z,100671.16
2019-03-31T15:12:33.094Z,100669.80
2019-03-31T15:15:00.914Z,100669.80
2019-03-31T15:17:28.524Z,100669.55
2019-03-31T15:20:02.205Z,100669.20
2019-03-31T15:22:30.085Z,100671.50
2019-03-31T15:24:57.713Z,100670.17
2019-03-31T15:27:25.260Z,100665.68
2019-03-31T15:29:53.116Z,100666.41
2019-03-31T15:32:22.423Z,100670.20
2019-03-31T15:34:50.206Z,100665.91
2019-03-31T15:37:20.388Z,100666.52
2019-03-31T15:39:51.287Z,100666.52
2019-03-31T15:42:20.225Z,100661.93
2019-03-31T15:44:47.739Z,100658.88
2019-03-31T15:47:16.441Z,100658.88
2019-03-31T15:49:44.356Z,100656.17
2019-03-31T15:52:12.130Z,100651.19
2019-03-31T15:54:39.787Z,100648.72
2019-03-31T15:57:09.688Z,100643.93
2019-03-31T15:59:40.655Z,100640.47
2019-03-31T16:02:08.225Z,100635.23
2019-03-31T16:04:40.218Z,100644.52
2019-03-31T16:07:07.842Z,100646.20
2019-03-31T16:09:37.748Z,100641.59
2019-03-31T16:12:05.369Z,100637.78
2019-03-31T16:14:33.204Z,100638.70
2019-03-31T16:17:01.031Z,100642.34
2019-03-31T16:19:28.612Z,100641.36
2019-03-31T16:21:56.212Z,100641.36
2019-03-31T16:24:36.446Z,100646.41
2019-03-31T16:27:04.003Z,100645.25
2019-03-31T16:29:34.740Z,100645.99
2019-03-31T16:32:05.232Z,100648.66
2019-03-31T16:34:35.244Z,100647.19
2019-03-31T16:37:03.144Z,100646.05
2019-03-31T16:39:37.467Z,100655.13
2019-03-31T16:41:59.858Z,100648.41
2019-03-31T16:44:30.762Z,100648.41
2019-03-31T16:46:58.652Z,100647.31
2019-03-31T16:49:26.190Z,100646.95
2019-03-31T16:51:53.919Z,100646.95
2019-03-31T16:54:21.470Z,100645.72
2019-03-31T16:56:49.065Z,100647.61
2019-03-31T16:59:18.464Z,100647.61
2019-03-31T17:01:47.992Z,100646.11
2019-03-31T17:04:17.220Z,100643.52
2019-03-31T17:06:47.997Z,100656.25
2019-03-31T17:09:15.571Z,100656.25
2019-03-31T17:11:46.559Z,100653.03
2019-03-31T17:14:21.511Z,100654.08
2019-03-31T17:16:51.811Z,100656.81
2019-03-31T17:19:26.679Z,100657.81
2019-03-31T17:21:54.288Z,100649.98
2019-03-31T17:24:23.847Z,100659.72
2019-03-31T17:26:51.376Z,100659.72
2019-03-31T17:29:19.194Z,100665.44
2019-03-31T17:31:48.091Z,100665.44
2019-03-31T17:34:15.930Z,100664.53
2019-03-31T17:36:45.292Z,100661.72
2019-03-31T17:39:15.872Z,100656.22
2019-03-31T17:41:43.728Z,100664.59
2019-03-31T17:44:11.330Z,100662.84
2019-03-31T17:46:40.371Z,100665.93
2019-03-31T17:49:10.055Z,100665.93
2019-03-31T17:51:37.582Z,100662.95
2019-03-31T17:54:08.495Z,100666.98
2019-03-31T17:56:38.109Z,100662.30
2019-03-31T17:59:08.898Z,100670.32
2019-03-31T18:01:39.228Z,100674.23
2019-03-31T18:04:07.201Z,100669.50
2019-03-31T18:06:37.047Z,100669.50
2019-03-31T18:09:05.733Z,100671.82
2019-03-31T18:11:33.667Z,100679.08
2019-03-31T18:14:02.248Z,100685.75
2019-03-31T18:16:34.003Z,100685.75
2019-03-31T18:19:01.911Z,100694.72
2019-03-31T18:21:29.488Z,100688.00
2019-03-31T18:23:57.162Z,100688.00
2019-03-31T18:26:25.013Z,100698.94
2019-03-31T18:28:52.958Z,100698.48
2019-03-31T18:31:20.533Z,100706.34
2019-03-31T18:33:48.385Z,100710.75
2019-03-31T18:36:19.460Z,100710.75
2019-03-31T18:38:47.355Z,100711.59
2019-03-31T18:41:15.144Z,100718.36
2019-03-31T18:43:51.303Z,100718.36
2019-03-31T18:46:16.501Z,100719.48
2019-03-31T18:48:44.332Z,100725.16
2019-03-31T18:51:11.924Z,100725.16
2019-03-31T18:54:01.422Z,100725.36
2019-03-31T18:56:48.157Z,100728.76
2019-03-31T18:59:43.651Z,100731.98
2019-03-31T19:02:25.157Z,100737.65
2019-03-31T19:05:20.303Z,100743.73
2019-03-31T19:07:58.984Z,100743.73
2019-03-31T19:10:49.766Z,100746.75
2019-03-31T19:13:35.144Z,100744.45
2019-03-31T19:16:15.293Z,100745.67
2019-03-31T19:18:54.347Z,100750.47
2019-03-31T19:21:45.881Z,100747.38
2019-03-31T19:24:31.274Z,100756.48
2019-03-31T19:27:26.542Z,100756.48
2019-03-31T19:30:15.693Z,100762.48
2019-03-31T19:33:07.361Z,100758.31
2019-03-31T19:35:41.402Z,100758.31
2019-03-31T19:38:31.377Z,100756.53
2019-03-31T19:41:18.378Z,100756.53
2019-03-31T19:44:02.056Z,100761.31
2019-03-31T19:46:52.035Z,100758.46
2019-03-31T19:49:34.695Z,100762.52
2019-03-31T19:52:20.142Z,100763.23
2019-03-31T19:55:06.630Z,100763.23
2019-03-31T19:57:59.248Z,100766.94
2019-03-31T20:01:05.493Z,100760.46
2019-03-31T20:03:58.324Z,100762.99
2019-03-31T20:06:53.443Z,100774.55
2019-03-31T20:09:43.006Z,100774.55
2019-03-31T20:12:28.056Z,100773.30
2019-03-31T20:15:13.169Z,100778.22
2019-03-31T20:17:53.406Z,100778.22
2019-03-31T20:20:38.529Z,100786.17
2019-03-31T20:23:22.079Z,100781.88
2019-03-31T20:26:23.693Z,100783.09
2019-03-31T20:29:17.494Z,100782.95
2019-03-31T20:32:17.846Z,100782.95
2019-03-31T20:35:15.827Z,100789.45
2019-03-31T20:38:08.253Z,100791.00
2019-03-31T20:40:49.810Z,100793.45
2019-03-31T20:43:33.035Z,100792.63
2019-03-31T20:46:04.162Z,100794.47
2019-03-31T20:48:30.141Z,100794.47
2019-03-31T20:50:57.741Z,100792.07
2019-03-31T20:53:25.727Z,100798.88
2019-03-31T20:55:53.675Z,100788.98
2019-03-31T20:58:21.236Z,100789.61
2019-03-31T21:00:48.816Z,100799.61
2019-03-31T21:03:16.984Z,100794.70
2019-03-31T21:05:44.592Z,100792.67
2019-03-31T21:08:15.199Z,100792.67
2019-03-31T21:10:44.711Z,100800.79
2019-03-31T21:13:12.467Z,100796.28
2019-03-31T21:15:41.201Z,100796.28
2019-03-31T21:18:09.210Z,100798.37
2019-03-31T21:20:36.795Z,100810.35
2019-03-31T21:23:06.277Z,100810.35
2019-03-31T21:25:33.918Z,100808.17
2019-03-31T21:28:01.899Z,100811.35
2019-03-31T21:30:29.472Z,100813.91
2019-03-31T21:32:59.845Z,100809.45
2019-03-31T21:35:30.895Z,100809.45
2019-03-31T21:37:58.395Z,100823.25
2019-03-31T21:40:25.995Z,100824.86
2019-03-31T21:42:54.860Z,100822.05
2019-03-31T21:45:24.213Z,100821.61
2019-03-31T21:47:51.913Z,100827.59
2019-03-31T21:50:19.715Z,100827.33
2019-03-31T21:52:48.479Z,100827.33
2019-03-31T21:55:19.037Z,100827.55
2019-03-31T21:57:46.610Z,100826.41
2019-03-31T22:00:14.500Z,100830.65
2019-03-31T22:02:42.033Z,100827.89
2019-03-31T22:05:09.561Z,100827.89
2019-03-31T22:07:37.116Z,100824.53
2019-03-31T22:10:09.112Z,100828.16
2019-03-31T22:12:36.637Z,100833.45
2019-03-31T22:15:04.495Z,100829.48
2019-03-31T22:17:32.003Z,100833.66
2019-03-31T22:20:02.727Z,100828.13
2019-03-31T22:22:32.164Z,100828.34
2019-03-31T22:24:59.629Z,100828.34
2019-03-31T22:27:28.400Z,100828.67
2019-03-31T22:29:56.233Z,100826.23
2019-03-31T22:32:26.933Z,100828.48
2019-03-31T22:34:54.403Z,100829.02
2019-03-31T22:37:24.988Z,100829.02
2019-03-31T22:39:52.452Z,100826.70
2019-03-31T22:42:20.025Z,100825.64
2019-03-31T22:44:47.911Z,100824.62
2019-03-31T22:47:15.718Z,100820.92
2019-03-31T22:49:43.299Z,100825.58
2019-03-31T22:52:11.202Z,100825.58
2019-03-31T22:54:38.805Z,100814.11
2019-03-31T22:57:06.314Z,100813.72
2019-03-31T22:59:33.795Z,100813.72
2019-03-31T23:02:04.251Z,100813.72
2019-03-31T23:04:31.890Z,100807.45
2019-03-31T23:06:59.469Z,100803.10
2019-03-31T23:09:27.062Z,100802.56
2019-03-31T23:11:54.637Z,100799.09
2019-03-31T23:14:22.239Z,100799.09
2019-03-31T23:16:49.974Z,100803.15
2019-03-31T23:19:17.577Z,100803.15
2019-03-31T23:21:45.063Z,100808.56
2019-03-31T23:24:12.679Z,100808.56
2019-03-31T23:26:40.573Z,100801.84
2019-03-31T23:29:10.869Z,100802.63
2019-03-31T23:31:38.485Z,100801.31
2019-03-31T23:34:08.920Z,100801.91
2019-03-31T23:36:36.738Z,100801.91
2019-03-31T23:39:05.259Z,100796.38
2019-03-31T23:41:32.868Z,100796.38
2019-03-31T23:44:00.762Z,100795.17
2019-03-31T23:46:28.599Z,100789.90
2019-03-31T23:48:56.173Z,100789.90
2019-03-31T23:51:23.795Z,100790.77
2019-03-31T23:53:51.410Z,100790.77
2019-03-31T23:56:19.227Z,100783.45
2019-03-31T23:58:46.763Z,100783.45
